Flight Track Log - Related Links

Times and Time Zones

All times are in EDT time to prevent confusion due to time zone crossing. See the UAL4457 flight status page for this flight to view local times or setup timezone preferences in your user account.

Time Position Orientation Groundspeed Altitude Reporting Facility
EDT Latitude Longitude Course Direction KTS km/h meters Rate Location/Type
Tue 15:02:12 29.9764 -95.2983 41° Northeast 162 299 213  Level Houston Center
Tue 15:03:20 30.0275 -95.2583 34° Northeast 246 455 823 599 Climbing Houston Center
Tue 15:04:08 30.0756 -95.2344 23° Northeast 249 462 1,372 698 Climbing Houston Center
Tue 15:05:00 30.3702 -95.0239 35° Northeast  Level FlightAware Approximate
Tue 15:05:10 30.1419 -95.1867 32° Northeast 275 509 2,103  Level Houston Center
Tue 15:06:00 30.4657 -94.9500 North  Level FlightAware Approximate
Tue 15:06:12 30.2128 -95.1358 32° Northeast 295 546 2,926  Level Houston Center
Tue 15:07:00 30.5620 -94.8713 41° Northeast  Level FlightAware Approximate
Tue 15:07:14 30.2900 -95.0814 31° Northeast 323 599 3,231  Level Houston Center
Tue 15:08:16 30.3769 -95.0181 32° Northeast 363 673 3,688 516 Climbing Houston Center
Tue 15:09:18 30.4811 -94.9425 32° Northeast 376 697 4,298 556 Climbing Houston Center
Tue 15:10:21 30.5719 -94.8775 32° Northeast 381 705 4,846 483 Climbing Houston Center
Tue 15:11:23 30.6622 -94.8081 33° Northeast 388 719 5,304 443 Climbing Houston Center
Tue 15:12:25 30.7536 -94.7372 34° Northeast 393 727 5,761 487 Climbing Houston Center
Tue 15:13:27 30.8653 -94.6508 34° Northeast 402 745 6,309 484 Climbing Houston Center
Tue 15:14:07 30.9192 -94.6094 33° Northeast 390 723 6,584 439 Climbing Fort Worth Center
Tue 15:15:07 31.0114 -94.5364 34° Northeast 396 734 7,041 442 Climbing Fort Worth Center
Tue 15:16:07 31.1100 -94.4606 33° Northeast 406 752 7,468 290 Climbing Fort Worth Center
Tue 15:17:07 31.2083 -94.3847 33° Northeast 420 777 7,620 76 Climbing Fort Worth Center
Tue 15:18:07 31.3128 -94.3011 34° Northeast 434 803 7,620 198 Level Fort Worth Center
Tue 15:19:07 31.4192 -94.2197 33° Northeast 448 830 8,016 427 Climbing Fort Worth Center
Tue 15:20:07 31.5217 -94.1406 33° Northeast 448 830 8,473 442 Climbing Fort Worth Center
Tue 15:21:07 31.6219 -94.0639 33° Northeast 443 821 8,900 457 Climbing Fort Worth Center
Tue 15:22:07 31.7261 -93.9819 34° Northeast 424 785 9,388 472 Climbing Fort Worth Center
Tue 15:23:07 31.8244 -93.9072 33° Northeast 424 785 9,845 411 Climbing Fort Worth Center
Tue 15:24:07 31.8958 -93.8483 35° Northeast 410 760 10,211 415 Climbing Fort Worth Center
Tue 15:25:06 31.9997 -93.7658 34° Northeast 405 750 10,668 229 Climbing Fort Worth Center
Tue 15:26:07 32.1061 -93.6831 33° Northeast 406 752 10,668  Level Fort Worth Center
Tue 15:27:06 32.2036 -93.5958 37° Northeast 417 772 10,668  Level Fort Worth Center
Tue 15:28:07 32.3094 -93.5103 34° Northeast 439 813 10,668  Level Fort Worth Center
Tue 15:29:06 32.4194 -93.4217 34° Northeast 459 850 10,668  Level Fort Worth Center
Tue 15:30:06 32.5314 -93.3306 34° Northeast 473 875 10,668  Level Fort Worth Center
Tue 15:31:06 32.6411 -93.2417 34° Northeast 478 885 10,668  Level Fort Worth Center
Tue 15:32:07 32.7531 -93.1550 33° Northeast 478 885 10,668  Level Fort Worth Center
Tue 15:33:07 32.8606 -93.0658 35° Northeast 473 875 10,668  Level Fort Worth Center
Tue 15:35:10 33.0869 -92.8839 34° Northeast 492 911 10,668  Level Memphis Center
Tue 15:36:10 33.1972 -92.7950 34° Northeast 492 911 10,668  Level Memphis Center
Tue 15:37:10 33.2869 -92.6933 43° Northeast 492 911 10,668  Level Memphis Center
Tue 15:38:10 33.3769 -92.5664 50° Northeast 486 900 10,668  Level Memphis Center
Tue 15:39:10 33.4625 -92.4364 52° Northeast 492 911 10,668  Level Memphis Center
Tue 15:40:10 33.5439 -92.3039 54° Northeast 492 911 10,668  Level Memphis Center
Tue 15:41:10 33.6336 -92.1761 50° Northeast 492 911 10,668  Level Memphis Center
Tue 15:42:10 33.7169 -92.0456 52° Northeast 492 911 10,668  Level Memphis Center
Tue 15:43:10 33.8042 -91.9147 51° Northeast 492 911 10,668  Level Memphis Center
Tue 15:44:10 33.8869 -91.7861 52° Northeast 486 900 10,668  Level Memphis Center
Tue 15:45:10 33.9719 -91.6447 54° Northeast 481 892 10,668  Level Memphis Center
Tue 15:46:10 34.0547 -91.5156 52° Northeast 475 880 10,668  Level Memphis Center
Tue 15:47:10 34.1392 -91.3886 51° Northeast 481 892 10,668  Level Memphis Center
Tue 15:48:10 34.2239 -91.2539 53° Northeast 486 900 10,668  Level Memphis Center
Tue 15:49:10 34.3039 -91.1239 53° Northeast 481 892 10,668  Level Memphis Center
Tue 15:50:10 34.3839 -90.9939 53° Northeast 481 892 10,668  Level Memphis Center
Tue 15:51:10 34.4681 -90.8636 52° Northeast 481 892 10,668  Level Memphis Center
Tue 15:52:10 34.5500 -90.7328 53° Northeast 481 892 10,668  Level Memphis Center
Tue 15:53:10 34.6317 -90.5969 54° Northeast 487 901 10,668  Level Memphis Center
Tue 15:54:10 34.7153 -90.4658 52° Northeast 497 921 10,668  Level Memphis Center
Tue 15:55:10 34.7925 -90.3242 56° Northeast 497 921 10,668  Level Memphis Center
Tue 15:56:10 34.8758 -90.1925 52° Northeast 497 921 10,668  Level Memphis Center
Tue 15:57:10 34.9611 -90.0606 52° Northeast 497 921 10,668  Level Memphis Center
Tue 15:58:10 35.0419 -89.9258 54° Northeast 492 911 10,668  Level Memphis Center
Tue 15:59:10 35.1208 -89.7908 54° Northeast 492 911 10,668  Level Memphis Center
Tue 16:00:10 35.1931 -89.6456 59° Northeast 492 911 10,668  Level Memphis Center
Tue 16:01:10 35.2650 -89.5025 58° Northeast 492 911 10,668  Level Memphis Center
Tue 16:02:10 35.3350 -89.3594 59° Northeast 492 911 10,668  Level Memphis Center
Tue 16:03:10 35.4028 -89.2261 58° Northeast 501 929 10,668  Level Memphis Center
Tue 16:04:10 35.4722 -89.0822 59° Northeast 501 929 10,668  Level Memphis Center
Tue 16:05:10 35.5436 -88.9383 59° Northeast 496 919 10,668  Level Memphis Center
Tue 16:06:10 35.6128 -88.7942 59° Northeast 491 909 10,668  Level Memphis Center
Tue 16:07:10 35.6839 -88.6497 59° Northeast 491 909 10,668  Level Memphis Center
Tue 16:08:10 35.7528 -88.5050 60° Northeast 491 909 10,668  Level Memphis Center
Tue 16:09:10 35.8233 -88.3600 59° Northeast 491 909 10,668  Level Memphis Center
Tue 16:10:10 35.8919 -88.2175 59° Northeast 491 909 10,668  Level Memphis Center
Tue 16:11:10 35.9625 -88.0797 58° Northeast 480 888 10,668  Level Memphis Center
Tue 16:12:10 36.0306 -87.9342 60° Northeast 475 880 10,668  Level Memphis Center
Tue 16:13:10 36.1047 -87.7778 60° Northeast 480 888 10,668  Level Memphis Center
Tue 16:14:10 36.1725 -87.6317 60° Northeast 485 898 10,668  Level Memphis Center
Tue 16:15:10 36.2400 -87.4853 60° Northeast 485 898 10,668 -46 Level Memphis Center
Tue 16:16:10 36.3094 -87.3411 59° Northeast 485 898 10,577 -229 Descending Memphis Center
Tue 16:17:10 36.3767 -87.1969 60° Northeast 479 887 10,211 -366 Descending Memphis Center
Tue 16:18:10 36.4439 -87.0525 60° Northeast 479 887 9,845 -335 Descending Memphis Center
Tue 16:19:10 36.5047 -86.9183 61° Northeast 479 887 9,540 -198 Descending Memphis Center
Tue 16:20:10 36.5717 -86.7733 60° Northeast 479 887 9,449 -122 Descending Memphis Center
Tue 16:21:10 36.6361 -86.6283 61° Northeast 479 887 9,296 -259 Descending Memphis Center
Tue 16:22:10 36.7064 -86.4697 61° Northeast 479 887 8,931 -229 Descending Memphis Center
Tue 16:23:10 36.7744 -86.3214 60° Northeast 479 887 8,839 -144 Descending Memphis Center
Tue 16:25:20 36.9147 -86.0089 61° Northeast 486 900 8,473 -324 Descending Indianapolis Center
Tue 16:27:24 37.0478 -85.7089 61° Northeast 487 901 7,468 -472 Descending Indianapolis Center
Tue 16:28:26 37.1108 -85.5658 61° Northeast 471 872 7,010 -546 Descending Indianapolis Center
Tue 16:29:28 37.1828 -85.4050 61° Northeast 467 864 6,340 -634 Descending Indianapolis Center
Tue 16:30:30 37.2442 -85.2664 61° Northeast 455 843 5,700 -649 Descending Indianapolis Center
Tue 16:31:32 37.3025 -85.1317 61° Northeast 441 816 4,999 -678 Descending Indianapolis Center
Tue 16:32:34 37.3581 -85.0028 61° Northeast 423 784 4,298 -634 Descending Indianapolis Center
Tue 16:33:36 37.4111 -84.8794 62° Northeast 403 747 3,688 -575 Descending Indianapolis Center
Tue 16:34:38 37.4711 -84.7536 59° Northeast 367 679 3,109 -310 Descending Indianapolis Center
Tue 16:35:40 37.5497 -84.7008 28° Northeast 323 599 3,048 -30 Descending Indianapolis Center
Tue 16:36:42 37.6278 -84.6511 27° Northeast 313 579 3,048  Level Indianapolis Center
Tue 16:37:44 37.7094 -84.5997 26° Northeast 323 599 3,048 -176 Level Indianapolis Center
Tue 16:38:47 37.7875 -84.5483 27° Northeast 320 592 2,682 -380 Descending Indianapolis Center
Tue 16:39:49 37.8664 -84.5128 20° North 305 565 2,256 -295 Descending Indianapolis Center
Tue 16:40:51 37.9553 -84.4789 17° North 290 538 2,073 -310 Descending Indianapolis Center
Tue 16:41:53 38.0328 -84.4833 357° North 281 520 1,615 -383 Descending Indianapolis Center
Tue 16:42:55 38.0769 -84.5306 320° Northwest 235 435 1,280 -398 Descending Indianapolis Center
Tue 16:43:57 38.0675 -84.5756 255° West 183 340 792 -472 Descending Indianapolis Center
Tue 16:45:00 38.0368 -84.6086 181° South  Level Estimated
Tue 16:52:00 38.0368 -84.6086 358° North  Level Estimated

Login

Don't have an account? Register now (free) for customized features, flight alerts, and more!